sensor_id;sensor_type;location;lat;lon;timestamp;P1;durP1;ratioP1;P2;durP2;ratioP2
73938;SDS011;62291;47.554;8.504;2023-01-15T00:00:41;1.52;;;0.45;;
73938;SDS011;62291;47.554;8.504;2023-01-15T00:03:07;1.58;;;0.50;;
73938;SDS011;62291;47.554;8.504;2023-01-15T00:05:36;1.20;;;0.50;;
73938;SDS011;62291;47.554;8.504;2023-01-15T00:08:02;1.75;;;0.50;;
73938;SDS011;62291;47.554;8.504;2023-01-15T00:10:29;1.02;;;0.50;;
73938;SDS011;62291;47.554;8.504;2023-01-15T00:12:54;2.88;;;0.50;;
73938;SDS011;62291;47.554;8.504;2023-01-15T00:15:20;2.10;;;0.50;;
73938;SDS011;62291;47.554;8.504;2023-01-15T00:17:48;1.50;;;0.50;;
73938;SDS011;62291;47.554;8.504;2023-01-15T00:20:23;1.00;;;0.45;;
73938;SDS011;62291;47.554;8.504;2023-01-15T00:22:49;0.65;;;0.30;;
73938;SDS011;62291;47.554;8.504;2023-01-15T00:25:15;1.27;;;0.40;;
73938;SDS011;62291;47.554;8.504;2023-01-15T00:28:00;1.75;;;0.50;;
73938;SDS011;62291;47.554;8.504;2023-01-15T00:30:25;1.10;;;0.30;;
73938;SDS011;62291;47.554;8.504;2023-01-15T00:32:54;1.08;;;0.40;;
73938;SDS011;62291;47.554;8.504;2023-01-15T00:35:22;0.70;;;0.30;;
73938;SDS011;62291;47.554;8.504;2023-01-15T00:37:48;1.30;;;0.50;;
73938;SDS011;62291;47.554;8.504;2023-01-15T00:40:15;0.88;;;0.38;;
73938;SDS011;62291;47.554;8.504;2023-01-15T00:42:45;0.80;;;0.30;;
73938;SDS011;62291;47.554;8.504;2023-01-15T00:45:11;0.90;;;0.40;;
73938;SDS011;62291;47.554;8.504;2023-01-15T00:47:37;0.55;;;0.30;;
73938;SDS011;62291;47.554;8.504;2023-01-15T00:50:06;0.90;;;0.47;;
73938;SDS011;62291;47.554;8.504;2023-01-15T00:52:33;1.38;;;0.52;;
73938;SDS011;62291;47.554;8.504;2023-01-15T00:55:00;0.70;;;0.30;;
73938;SDS011;62291;47.554;8.504;2023-01-15T00:57:32;0.77;;;0.40;;
73938;SDS011;62291;47.554;8.504;2023-01-15T01:00:00;0.63;;;0.30;;
73938;SDS011;62291;47.554;8.504;2023-01-15T01:02:25;0.47;;;0.20;;
73938;SDS011;62291;47.554;8.504;2023-01-15T01:04:52;1.38;;;0.30;;
73938;SDS011;62291;47.554;8.504;2023-01-15T01:07:19;0.77;;;0.30;;
73938;SDS011;62291;47.554;8.504;2023-01-15T01:09:48;2.42;;;0.22;;
73938;SDS011;62291;47.554;8.504;2023-01-15T01:12:15;1.10;;;0.40;;
73938;SDS011;62291;47.554;8.504;2023-01-15T01:14:45;0.50;;;0.30;;
73938;SDS011;62291;47.554;8.504;2023-01-15T01:17:11;0.60;;;0.30;;
73938;SDS011;62291;47.554;8.504;2023-01-15T01:19:36;1.13;;;0.40;;
73938;SDS011;62291;47.554;8.504;2023-01-15T01:22:05;0.57;;;0.30;;
73938;SDS011;62291;47.554;8.504;2023-01-15T01:24:51;0.50;;;0.20;;
73938;SDS011;62291;47.554;8.504;2023-01-15T01:27:17;4.47;;;0.40;;
73938;SDS011;62291;47.554;8.504;2023-01-15T01:29:43;0.88;;;0.40;;
73938;SDS011;62291;47.554;8.504;2023-01-15T01:32:09;3.65;;;0.40;;
73938;SDS011;62291;47.554;8.504;2023-01-15T01:34:35;0.70;;;0.30;;
73938;SDS011;62291;47.554;8.504;2023-01-15T01:37:01;0.65;;;0.30;;
73938;SDS011;62291;47.554;8.504;2023-01-15T01:39:27;0.65;;;0.30;;
73938;SDS011;62291;47.554;8.504;2023-01-15T01:41:57;1.77;;;0.30;;
73938;SDS011;62291;47.554;8.504;2023-01-15T01:47:02;2.50;;;0.50;;
73938;SDS011;62291;47.554;8.504;2023-01-15T01:49:33;0.95;;;0.30;;
73938;SDS011;62291;47.554;8.504;2023-01-15T01:52:03;2.13;;;0.30;;
73938;SDS011;62291;47.554;8.504;2023-01-15T01:54:48;1.90;;;0.40;;
73938;SDS011;62291;47.554;8.504;2023-01-15T01:57:15;0.85;;;0.30;;
73938;SDS011;62291;47.554;8.504;2023-01-15T01:59:42;0.50;;;0.30;;
73938;SDS011;62291;47.554;8.504;2023-01-15T02:02:09;1.40;;;0.20;;
73938;SDS011;62291;47.554;8.504;2023-01-15T02:04:38;1.00;;;0.40;;
73938;SDS011;62291;47.554;8.504;2023-01-15T02:07:05;1.50;;;0.30;;
73938;SDS011;62291;47.554;8.504;2023-01-15T02:09:31;0.85;;;0.30;;
73938;SDS011;62291;47.554;8.504;2023-01-15T02:12:00;2.65;;;0.32;;
73938;SDS011;62291;47.554;8.504;2023-01-15T02:14:34;1.42;;;0.30;;
73938;SDS011;62291;47.554;8.504;2023-01-15T02:17:23;0.40;;;0.20;;
73938;SDS011;62291;47.554;8.504;2023-01-15T02:19:57;1.05;;;0.40;;
73938;SDS011;62291;47.554;8.504;2023-01-15T02:25:32;0.47;;;0.20;;
73938;SDS011;62291;47.554;8.504;2023-01-15T02:28:23;1.88;;;0.95;;
73938;SDS011;62291;47.554;8.504;2023-01-15T02:31:06;0.50;;;0.30;;
73938;SDS011;62291;47.554;8.504;2023-01-15T02:33:37;1.90;;;0.50;;
73938;SDS011;62291;47.554;8.504;2023-01-15T02:36:07;0.90;;;0.30;;
73938;SDS011;62291;47.554;8.504;2023-01-15T02:38:41;0.93;;;0.30;;
73938;SDS011;62291;47.554;8.504;2023-01-15T02:41:10;0.40;;;0.20;;
73938;SDS011;62291;47.554;8.504;2023-01-15T02:43:45;1.38;;;0.40;;
73938;SDS011;62291;47.554;8.504;2023-01-15T02:46:15;0.47;;;0.30;;
73938;SDS011;62291;47.554;8.504;2023-01-15T02:48:43;0.65;;;0.30;;
73938;SDS011;62291;47.554;8.504;2023-01-15T02:51:17;1.85;;;0.40;;
73938;SDS011;62291;47.554;8.504;2023-01-15T02:53:47;0.55;;;0.25;;
73938;SDS011;62291;47.554;8.504;2023-01-15T02:56:17;2.63;;;0.43;;
73938;SDS011;62291;47.554;8.504;2023-01-15T02:58:47;0.55;;;0.30;;
73938;SDS011;62291;47.554;8.504;2023-01-15T03:01:21;1.55;;;0.40;;
73938;SDS011;62291;47.554;8.504;2023-01-15T03:03:55;1.08;;;0.30;;
73938;SDS011;62291;47.554;8.504;2023-01-15T03:06:48;0.80;;;0.40;;
73938;SDS011;62291;47.554;8.504;2023-01-15T03:09:21;2.35;;;0.30;;
73938;SDS011;62291;47.554;8.504;2023-01-15T03:12:12;0.82;;;0.35;;
73938;SDS011;62291;47.554;8.504;2023-01-15T03:17:52;1.48;;;0.40;;
73938;SDS011;62291;47.554;8.504;2023-01-15T03:20:19;1.00;;;0.40;;
73938;SDS011;62291;47.554;8.504;2023-01-15T03:22:50;1.05;;;0.30;;
73938;SDS011;62291;47.554;8.504;2023-01-15T03:25:25;2.22;;;0.30;;
73938;SDS011;62291;47.554;8.504;2023-01-15T03:27:56;2.42;;;0.30;;
73938;SDS011;62291;47.554;8.504;2023-01-15T03:30:25;1.52;;;0.28;;
73938;SDS011;62291;47.554;8.504;2023-01-15T03:32:52;0.60;;;0.30;;
73938;SDS011;62291;47.554;8.504;2023-01-15T03:38:25;0.75;;;0.30;;
73938;SDS011;62291;47.554;8.504;2023-01-15T03:41:03;0.80;;;0.30;;
73938;SDS011;62291;47.554;8.504;2023-01-15T03:47:07;1.80;;;0.82;;
73938;SDS011;62291;47.554;8.504;2023-01-15T03:49:18;1.27;;;0.30;;
73938;SDS011;62291;47.554;8.504;2023-01-15T04:00:09;1.92;;;0.40;;
73938;SDS011;62291;47.554;8.504;2023-01-15T04:02:46;1.48;;;0.30;;
73938;SDS011;62291;47.554;8.504;2023-01-15T04:05:13;3.28;;;0.47;;
73938;SDS011;62291;47.554;8.504;2023-01-15T04:07:40;2.10;;;0.32;;
73938;SDS011;62291;47.554;8.504;2023-01-15T04:10:08;1.83;;;0.40;;
73938;SDS011;62291;47.554;8.504;2023-01-15T04:12:34;1.05;;;0.30;;
73938;SDS011;62291;47.554;8.504;2023-01-15T04:15:00;0.60;;;0.40;;
73938;SDS011;62291;47.554;8.504;2023-01-15T04:17:25;0.50;;;0.30;;
73938;SDS011;62291;47.554;8.504;2023-01-15T04:19:51;1.45;;;0.40;;
73938;SDS011;62291;47.554;8.504;2023-01-15T04:22:17;0.80;;;0.30;;
73938;SDS011;62291;47.554;8.504;2023-01-15T04:24:42;1.70;;;0.68;;
73938;SDS011;62291;47.554;8.504;2023-01-15T04:27:08;0.80;;;0.40;;
73938;SDS011;62291;47.554;8.504;2023-01-15T04:29:34;0.95;;;0.35;;
73938;SDS011;62291;47.554;8.504;2023-01-15T04:31:59;1.92;;;0.40;;
73938;SDS011;62291;47.554;8.504;2023-01-15T04:34:25;0.80;;;0.40;;
73938;SDS011;62291;47.554;8.504;2023-01-15T04:36:52;0.88;;;0.40;;
73938;SDS011;62291;47.554;8.504;2023-01-15T04:39:18;1.10;;;0.40;;
73938;SDS011;62291;47.554;8.504;2023-01-15T04:41:44;2.50;;;0.40;;
73938;SDS011;62291;47.554;8.504;2023-01-15T04:44:34;1.73;;;0.40;;
73938;SDS011;62291;47.554;8.504;2023-01-15T04:47:00;2.05;;;0.40;;
73938;SDS011;62291;47.554;8.504;2023-01-15T04:49:26;1.20;;;0.45;;
73938;SDS011;62291;47.554;8.504;2023-01-15T04:51:52;1.67;;;0.50;;
73938;SDS011;62291;47.554;8.504;2023-01-15T04:54:17;1.02;;;0.40;;
73938;SDS011;62291;47.554;8.504;2023-01-15T04:56:45;1.23;;;0.40;;
73938;SDS011;62291;47.554;8.504;2023-01-15T04:59:14;0.70;;;0.40;;
73938;SDS011;62291;47.554;8.504;2023-01-15T05:01:40;0.70;;;0.30;;
73938;SDS011;62291;47.554;8.504;2023-01-15T05:04:06;1.23;;;0.35;;
73938;SDS011;62291;47.554;8.504;2023-01-15T05:06:32;0.57;;;0.30;;
73938;SDS011;62291;47.554;8.504;2023-01-15T05:08:58;0.93;;;0.30;;
73938;SDS011;62291;47.554;8.504;2023-01-15T05:11:25;1.10;;;0.30;;
73938;SDS011;62291;47.554;8.504;2023-01-15T05:13:52;0.40;;;0.30;;
73938;SDS011;62291;47.554;8.504;2023-01-15T05:16:19;1.75;;;0.43;;
73938;SDS011;62291;47.554;8.504;2023-01-15T05:18:47;0.93;;;0.30;;
73938;SDS011;62291;47.554;8.504;2023-01-15T05:23:42;2.70;;;0.32;;
73938;SDS011;62291;47.554;8.504;2023-01-15T05:26:09;0.40;;;0.35;;
73938;SDS011;62291;47.554;8.504;2023-01-15T05:28:35;1.23;;;0.35;;
73938;SDS011;62291;47.554;8.504;2023-01-15T05:31:11;1.15;;;0.30;;
73938;SDS011;62291;47.554;8.504;2023-01-15T05:33:39;1.38;;;0.30;;
73938;SDS011;62291;47.554;8.504;2023-01-15T05:36:07;2.00;;;0.40;;
73938;SDS011;62291;47.554;8.504;2023-01-15T05:38:37;0.60;;;0.40;;
73938;SDS011;62291;47.554;8.504;2023-01-15T05:41:04;0.73;;;0.38;;
73938;SDS011;62291;47.554;8.504;2023-01-15T05:43:50;0.50;;;0.30;;
73938;SDS011;62291;47.554;8.504;2023-01-15T05:46:16;0.75;;;0.30;;
73938;SDS011;62291;47.554;8.504;2023-01-15T05:48:42;1.33;;;0.30;;
73938;SDS011;62291;47.554;8.504;2023-01-15T05:51:08;1.25;;;0.30;;
73938;SDS011;62291;47.554;8.504;2023-01-15T05:53:33;0.55;;;0.30;;
73938;SDS011;62291;47.554;8.504;2023-01-15T05:56:03;1.27;;;0.40;;
73938;SDS011;62291;47.554;8.504;2023-01-15T05:58:29;0.98;;;0.40;;
73938;SDS011;62291;47.554;8.504;2023-01-15T06:00:55;0.90;;;0.40;;
73938;SDS011;62291;47.554;8.504;2023-01-15T06:03:21;2.05;;;0.73;;
73938;SDS011;62291;47.554;8.504;2023-01-15T06:05:51;0.88;;;0.50;;
73938;SDS011;62291;47.554;8.504;2023-01-15T06:08:17;0.90;;;0.30;;
73938;SDS011;62291;47.554;8.504;2023-01-15T06:10:43;1.00;;;0.40;;
73938;SDS011;62291;47.554;8.504;2023-01-15T06:13:10;1.02;;;0.60;;
73938;SDS011;62291;47.554;8.504;2023-01-15T06:15:36;1.60;;;0.40;;
73938;SDS011;62291;47.554;8.504;2023-01-15T06:18:02;1.27;;;0.38;;
73938;SDS011;62291;47.554;8.504;2023-01-15T06:20:27;1.38;;;0.30;;
73938;SDS011;62291;47.554;8.504;2023-01-15T06:22:53;1.30;;;0.40;;
73938;SDS011;62291;47.554;8.504;2023-01-15T06:25:19;0.55;;;0.32;;
73938;SDS011;62291;47.554;8.504;2023-01-15T06:27:44;0.60;;;0.30;;
73938;SDS011;62291;47.554;8.504;2023-01-15T06:30:12;2.40;;;0.40;;
73938;SDS011;62291;47.554;8.504;2023-01-15T06:32:38;1.02;;;0.40;;
73938;SDS011;62291;47.554;8.504;2023-01-15T06:35:04;0.57;;;0.28;;
73938;SDS011;62291;47.554;8.504;2023-01-15T06:37:30;0.30;;;0.30;;
73938;SDS011;62291;47.554;8.504;2023-01-15T06:39:55;1.33;;;0.32;;
73938;SDS011;62291;47.554;8.504;2023-01-15T06:42:21;0.65;;;0.30;;
73938;SDS011;62291;47.554;8.504;2023-01-15T06:45:05;0.95;;;0.30;;
73938;SDS011;62291;47.554;8.504;2023-01-15T06:47:52;0.50;;;0.22;;
73938;SDS011;62291;47.554;8.504;2023-01-15T06:50:18;0.50;;;0.30;;
73938;SDS011;62291;47.554;8.504;2023-01-15T06:52:44;0.40;;;0.20;;
73938;SDS011;62291;47.554;8.504;2023-01-15T06:55:09;0.68;;;0.30;;
73938;SDS011;62291;47.554;8.504;2023-01-15T06:57:38;3.80;;;0.30;;
73938;SDS011;62291;47.554;8.504;2023-01-15T07:00:06;0.88;;;0.20;;
73938;SDS011;62291;47.554;8.504;2023-01-15T07:02:32;1.27;;;0.30;;
73938;SDS011;62291;47.554;8.504;2023-01-15T07:04:58;0.65;;;0.30;;
73938;SDS011;62291;47.554;8.504;2023-01-15T07:07:26;0.60;;;0.30;;
73938;SDS011;62291;47.554;8.504;2023-01-15T07:09:53;0.70;;;0.30;;
73938;SDS011;62291;47.554;8.504;2023-01-15T07:12:19;0.47;;;0.30;;
73938;SDS011;62291;47.554;8.504;2023-01-15T07:14:45;0.35;;;0.30;;
73938;SDS011;62291;47.554;8.504;2023-01-15T07:17:11;0.93;;;0.30;;
73938;SDS011;62291;47.554;8.504;2023-01-15T07:19:37;0.40;;;0.20;;
73938;SDS011;62291;47.554;8.504;2023-01-15T07:22:03;3.03;;;0.65;;
73938;SDS011;62291;47.554;8.504;2023-01-15T07:24:30;0.50;;;0.20;;
73938;SDS011;62291;47.554;8.504;2023-01-15T07:26:56;0.68;;;0.20;;
73938;SDS011;62291;47.554;8.504;2023-01-15T07:29:22;0.95;;;0.35;;
73938;SDS011;62291;47.554;8.504;2023-01-15T07:31:48;1.48;;;0.30;;
73938;SDS011;62291;47.554;8.504;2023-01-15T07:34:14;0.93;;;0.30;;
73938;SDS011;62291;47.554;8.504;2023-01-15T07:36:40;0.95;;;0.30;;
73938;SDS011;62291;47.554;8.504;2023-01-15T07:39:07;0.57;;;0.20;;
73938;SDS011;62291;47.554;8.504;2023-01-15T07:41:34;0.70;;;0.30;;
73938;SDS011;62291;47.554;8.504;2023-01-15T07:44:18;1.33;;;0.20;;
73938;SDS011;62291;47.554;8.504;2023-01-15T07:47:02;0.52;;;0.20;;
73938;SDS011;62291;47.554;8.504;2023-01-15T07:50:02;0.50;;;0.20;;
73938;SDS011;62291;47.554;8.504;2023-01-15T07:52:30;0.30;;;0.17;;
73938;SDS011;62291;47.554;8.504;2023-01-15T07:54:56;0.88;;;0.20;;
73938;SDS011;62291;47.554;8.504;2023-01-15T07:57:22;0.40;;;0.20;;
73938;SDS011;62291;47.554;8.504;2023-01-15T07:59:48;0.30;;;0.20;;
73938;SDS011;62291;47.554;8.504;2023-01-15T08:02:18;0.43;;;0.20;;
73938;SDS011;62291;47.554;8.504;2023-01-15T08:04:44;1.08;;;0.20;;
73938;SDS011;62291;47.554;8.504;2023-01-15T08:07:11;0.25;;;0.20;;
73938;SDS011;62291;47.554;8.504;2023-01-15T08:09:37;1.02;;;0.30;;
73938;SDS011;62291;47.554;8.504;2023-01-15T08:12:03;1.02;;;0.30;;
73938;SDS011;62291;47.554;8.504;2023-01-15T08:14:47;0.93;;;0.20;;
73938;SDS011;62291;47.554;8.504;2023-01-15T08:17:32;0.17;;;0.10;;
73938;SDS011;62291;47.554;8.504;2023-01-15T08:20:02;0.30;;;0.10;;
73938;SDS011;62291;47.554;8.504;2023-01-15T08:22:30;0.13;;;0.10;;
73938;SDS011;62291;47.554;8.504;2023-01-15T08:24:57;1.65;;;0.10;;
73938;SDS011;62291;47.554;8.504;2023-01-15T08:27:22;0.13;;;0.10;;
73938;SDS011;62291;47.554;8.504;2023-01-15T08:29:48;0.20;;;0.10;;
73938;SDS011;62291;47.554;8.504;2023-01-15T08:32:14;0.30;;;0.10;;
73938;SDS011;62291;47.554;8.504;2023-01-15T08:34:40;0.63;;;0.10;;
73938;SDS011;62291;47.554;8.504;2023-01-15T08:37:05;0.20;;;0.10;;
73938;SDS011;62291;47.554;8.504;2023-01-15T08:39:31;0.17;;;0.10;;
73938;SDS011;62291;47.554;8.504;2023-01-15T08:41:57;0.10;;;0.10;;
73938;SDS011;62291;47.554;8.504;2023-01-15T08:44:23;0.00;;;0.00;;
73938;SDS011;62291;47.554;8.504;2023-01-15T08:46:49;0.32;;;0.22;;
73938;SDS011;62291;47.554;8.504;2023-01-15T08:49:16;0.95;;;0.10;;
73938;SDS011;62291;47.554;8.504;2023-01-15T08:51:43;0.10;;;0.10;;
73938;SDS011;62291;47.554;8.504;2023-01-15T08:54:11;0.30;;;0.20;;
73938;SDS011;62291;47.554;8.504;2023-01-15T08:56:37;0.40;;;0.30;;
73938;SDS011;62291;47.554;8.504;2023-01-15T08:59:03;0.22;;;0.10;;
73938;SDS011;62291;47.554;8.504;2023-01-15T09:01:30;1.52;;;0.20;;
73938;SDS011;62291;47.554;8.504;2023-01-15T09:03:56;0.10;;;0.10;;
73938;SDS011;62291;47.554;8.504;2023-01-15T09:06:22;0.10;;;0.10;;
73938;SDS011;62291;47.554;8.504;2023-01-15T09:08:48;0.45;;;0.10;;
73938;SDS011;62291;47.554;8.504;2023-01-15T09:11:14;0.10;;;0.10;;
73938;SDS011;62291;47.554;8.504;2023-01-15T09:13:39;0.35;;;0.08;;
73938;SDS011;62291;47.554;8.504;2023-01-15T09:16:06;0.10;;;0.10;;
73938;SDS011;62291;47.554;8.504;2023-01-15T09:18:35;0.20;;;0.10;;
73938;SDS011;62291;47.554;8.504;2023-01-15T09:21:01;0.10;;;0.10;;
73938;SDS011;62291;47.554;8.504;2023-01-15T09:23:27;0.40;;;0.10;;
73938;SDS011;62291;47.554;8.504;2023-01-15T09:25:54;0.10;;;0.10;;
73938;SDS011;62291;47.554;8.504;2023-01-15T09:28:21;0.43;;;0.10;;
73938;SDS011;62291;47.554;8.504;2023-01-15T09:30:47;0.10;;;0.10;;
73938;SDS011;62291;47.554;8.504;2023-01-15T09:33:13;0.47;;;0.10;;
73938;SDS011;62291;47.554;8.504;2023-01-15T09:35:39;0.10;;;0.10;;
73938;SDS011;62291;47.554;8.504;2023-01-15T09:38:06;0.28;;;0.17;;
73938;SDS011;62291;47.554;8.504;2023-01-15T09:43:08;0.10;;;0.10;;
73938;SDS011;62291;47.554;8.504;2023-01-15T09:46:00;0.20;;;0.10;;
73938;SDS011;62291;47.554;8.504;2023-01-15T09:48:46;0.10;;;0.10;;
73938;SDS011;62291;47.554;8.504;2023-01-15T09:51:47;0.10;;;0.10;;
73938;SDS011;62291;47.554;8.504;2023-01-15T09:54:31;1.92;;;0.40;;
73938;SDS011;62291;47.554;8.504;2023-01-15T09:57:12;0.30;;;0.20;;
73938;SDS011;62291;47.554;8.504;2023-01-15T09:59:46;0.85;;;0.15;;
73938;SDS011;62291;47.554;8.504;2023-01-15T10:02:23;0.20;;;0.10;;
73938;SDS011;62291;47.554;8.504;2023-01-15T10:04:54;0.03;;;0.03;;
73938;SDS011;62291;47.554;8.504;2023-01-15T10:07:26;1.02;;;0.20;;
73938;SDS011;62291;47.554;8.504;2023-01-15T10:10:00;0.75;;;0.63;;
73938;SDS011;62291;47.554;8.504;2023-01-15T10:12:29;0.20;;;0.10;;
73938;SDS011;62291;47.554;8.504;2023-01-15T10:17:47;0.10;;;0.10;;
73938;SDS011;62291;47.554;8.504;2023-01-15T10:20:27;0.10;;;0.10;;
73938;SDS011;62291;47.554;8.504;2023-01-15T10:25:46;0.10;;;0.10;;
73938;SDS011;62291;47.554;8.504;2023-01-15T10:29:00;0.22;;;0.20;;
73938;SDS011;62291;47.554;8.504;2023-01-15T10:31:12;0.40;;;0.10;;
73938;SDS011;62291;47.554;8.504;2023-01-15T10:36:31;0.10;;;0.10;;
73938;SDS011;62291;47.554;8.504;2023-01-15T10:39:16;0.10;;;0.10;;
73938;SDS011;62291;47.554;8.504;2023-01-15T10:45:15;0.20;;;0.10;;
73938;SDS011;62291;47.554;8.504;2023-01-15T10:48:02;0.32;;;0.20;;
73938;SDS011;62291;47.554;8.504;2023-01-15T10:50:43;0.85;;;0.10;;
73938;SDS011;62291;47.554;8.504;2023-01-15T10:53:31;0.10;;;0.10;;
73938;SDS011;62291;47.554;8.504;2023-01-15T10:56:04;0.60;;;0.15;;
73938;SDS011;62291;47.554;8.504;2023-01-15T10:58:38;0.00;;;0.00;;
73938;SDS011;62291;47.554;8.504;2023-01-15T11:01:18;0.33;;;0.10;;
73938;SDS011;62291;47.554;8.504;2023-01-15T11:03:47;0.65;;;0.10;;
73938;SDS011;62291;47.554;8.504;2023-01-15T11:06:14;0.10;;;0.10;;
73938;SDS011;62291;47.554;8.504;2023-01-15T11:08:43;0.10;;;0.10;;
73938;SDS011;62291;47.554;8.504;2023-01-15T11:11:24;0.10;;;0.10;;
73938;SDS011;62291;47.554;8.504;2023-01-15T11:14:10;1.92;;;0.20;;
73938;SDS011;62291;47.554;8.504;2023-01-15T11:16:54;0.20;;;0.10;;
73938;SDS011;62291;47.554;8.504;2023-01-15T11:19:33;0.30;;;0.20;;
73938;SDS011;62291;47.554;8.504;2023-01-15T11:22:04;0.32;;;0.20;;
73938;SDS011;62291;47.554;8.504;2023-01-15T11:24:34;0.40;;;0.10;;
73938;SDS011;62291;47.554;8.504;2023-01-15T11:27:03;0.20;;;0.10;;
73938;SDS011;62291;47.554;8.504;2023-01-15T11:29:31;0.52;;;0.17;;
73938;SDS011;62291;47.554;8.504;2023-01-15T11:32:00;0.30;;;0.20;;
73938;SDS011;62291;47.554;8.504;2023-01-15T11:34:27;0.52;;;0.10;;
73938;SDS011;62291;47.554;8.504;2023-01-15T11:37:05;0.00;;;0.00;;
73938;SDS011;62291;47.554;8.504;2023-01-15T11:39:31;0.10;;;0.10;;
73938;SDS011;62291;47.554;8.504;2023-01-15T11:42:00;0.10;;;0.10;;
73938;SDS011;62291;47.554;8.504;2023-01-15T11:44:50;0.10;;;0.10;;
73938;SDS011;62291;47.554;8.504;2023-01-15T11:47:36;0.30;;;0.20;;
73938;SDS011;62291;47.554;8.504;2023-01-15T11:50:23;0.63;;;0.20;;
73938;SDS011;62291;47.554;8.504;2023-01-15T11:53:12;0.10;;;0.10;;
73938;SDS011;62291;47.554;8.504;2023-01-15T11:55:48;0.40;;;0.10;;
73938;SDS011;62291;47.554;8.504;2023-01-15T11:58:21;0.20;;;0.10;;
73938;SDS011;62291;47.554;8.504;2023-01-15T12:00:49;0.20;;;0.10;;
73938;SDS011;62291;47.554;8.504;2023-01-15T12:03:19;0.13;;;0.10;;
73938;SDS011;62291;47.554;8.504;2023-01-15T12:05:57;0.50;;;0.20;;
73938;SDS011;62291;47.554;8.504;2023-01-15T12:08:51;0.20;;;0.13;;
73938;SDS011;62291;47.554;8.504;2023-01-15T12:16:53;0.10;;;0.10;;
73938;SDS011;62291;47.554;8.504;2023-01-15T12:27:53;0.47;;;0.20;;
73938;SDS011;62291;47.554;8.504;2023-01-15T12:35:54;0.45;;;0.20;;
73938;SDS011;62291;47.554;8.504;2023-01-15T12:41:33;0.52;;;0.20;;
73938;SDS011;62291;47.554;8.504;2023-01-15T12:44:45;0.28;;;0.20;;
73938;SDS011;62291;47.554;8.504;2023-01-15T12:47:34;0.60;;;0.20;;
73938;SDS011;62291;47.554;8.504;2023-01-15T12:52:45;0.70;;;0.10;;
73938;SDS011;62291;47.554;8.504;2023-01-15T12:55:15;0.68;;;0.20;;
73938;SDS011;62291;47.554;8.504;2023-01-15T12:57:47;0.38;;;0.10;;
73938;SDS011;62291;47.554;8.504;2023-01-15T13:00:23;0.30;;;0.10;;
73938;SDS011;62291;47.554;8.504;2023-01-15T13:05:19;0.52;;;0.20;;
73938;SDS011;62291;47.554;8.504;2023-01-15T13:08:05;0.10;;;0.10;;
73938;SDS011;62291;47.554;8.504;2023-01-15T13:10:53;0.55;;;0.20;;
73938;SDS011;62291;47.554;8.504;2023-01-15T13:13:20;0.20;;;0.17;;
73938;SDS011;62291;47.554;8.504;2023-01-15T13:16:11;0.10;;;0.10;;
73938;SDS011;62291;47.554;8.504;2023-01-15T13:19:04;0.50;;;0.20;;
73938;SDS011;62291;47.554;8.504;2023-01-15T13:21:46;0.85;;;0.10;;
73938;SDS011;62291;47.554;8.504;2023-01-15T13:24:30;0.50;;;0.20;;
73938;SDS011;62291;47.554;8.504;2023-01-15T13:32:38;0.77;;;0.20;;
73938;SDS011;62291;47.554;8.504;2023-01-15T13:37:42;0.65;;;0.20;;
73938;SDS011;62291;47.554;8.504;2023-01-15T13:40:19;0.30;;;0.17;;
73938;SDS011;62291;47.554;8.504;2023-01-15T13:42:47;0.20;;;0.20;;
73938;SDS011;62291;47.554;8.504;2023-01-15T13:48:01;0.45;;;0.25;;
73938;SDS011;62291;47.554;8.504;2023-01-15T13:50:50;0.20;;;0.20;;
73938;SDS011;62291;47.554;8.504;2023-01-15T13:53:24;0.45;;;0.20;;
73938;SDS011;62291;47.554;8.504;2023-01-15T13:56:02;0.30;;;0.20;;
73938;SDS011;62291;47.554;8.504;2023-01-15T13:58:31;0.45;;;0.20;;
73938;SDS011;62291;47.554;8.504;2023-01-15T14:01:44;0.32;;;0.20;;
73938;SDS011;62291;47.554;8.504;2023-01-15T14:09:30;0.28;;;0.15;;
73938;SDS011;62291;47.554;8.504;2023-01-15T14:23:02;0.40;;;0.20;;
73938;SDS011;62291;47.554;8.504;2023-01-15T14:34:09;0.30;;;0.20;;
73938;SDS011;62291;47.554;8.504;2023-01-15T14:39:51;0.32;;;0.20;;
73938;SDS011;62291;47.554;8.504;2023-01-15T14:47:43;0.30;;;0.20;;
73938;SDS011;62291;47.554;8.504;2023-01-15T14:50:20;0.47;;;0.30;;
73938;SDS011;62291;47.554;8.504;2023-01-15T14:55:40;2.75;;;1.40;;
73938;SDS011;62291;47.554;8.504;2023-01-15T15:03:53;1.00;;;0.20;;
73938;SDS011;62291;47.554;8.504;2023-01-15T15:06:45;0.32;;;0.20;;
73938;SDS011;62291;47.554;8.504;2023-01-15T15:09:18;0.30;;;0.20;;
73938;SDS011;62291;47.554;8.504;2023-01-15T15:11:53;1.30;;;0.30;;
73938;SDS011;62291;47.554;8.504;2023-01-15T15:14:46;0.88;;;0.25;;
73938;SDS011;62291;47.554;8.504;2023-01-15T15:17:48;0.60;;;0.25;;
73938;SDS011;62291;47.554;8.504;2023-01-15T15:26:17;1.00;;;0.40;;
73938;SDS011;62291;47.554;8.504;2023-01-15T15:28:59;0.50;;;0.30;;
73938;SDS011;62291;47.554;8.504;2023-01-15T15:31:25;1.15;;;0.50;;
73938;SDS011;62291;47.554;8.504;2023-01-15T15:33:53;1.30;;;0.47;;
73938;SDS011;62291;47.554;8.504;2023-01-15T15:36:20;0.93;;;0.40;;
73938;SDS011;62291;47.554;8.504;2023-01-15T15:38:54;0.90;;;0.43;;
73938;SDS011;62291;47.554;8.504;2023-01-15T15:41:23;1.42;;;0.50;;
73938;SDS011;62291;47.554;8.504;2023-01-15T15:44:14;1.13;;;0.40;;
73938;SDS011;62291;47.554;8.504;2023-01-15T15:47:19;0.90;;;0.60;;
73938;SDS011;62291;47.554;8.504;2023-01-15T15:50:06;1.10;;;0.50;;
73938;SDS011;62291;47.554;8.504;2023-01-15T15:52:43;0.80;;;0.50;;
73938;SDS011;62291;47.554;8.504;2023-01-15T15:55:15;1.48;;;0.70;;
73938;SDS011;62291;47.554;8.504;2023-01-15T15:57:41;2.08;;;0.63;;
73938;SDS011;62291;47.554;8.504;2023-01-15T16:00:15;1.50;;;0.70;;
73938;SDS011;62291;47.554;8.504;2023-01-15T16:02:49;2.88;;;0.60;;
73938;SDS011;62291;47.554;8.504;2023-01-15T16:05:20;1.60;;;0.70;;
73938;SDS011;62291;47.554;8.504;2023-01-15T16:10:29;2.22;;;0.60;;
73938;SDS011;62291;47.554;8.504;2023-01-15T16:12:57;1.67;;;0.80;;
73938;SDS011;62291;47.554;8.504;2023-01-15T16:15:29;1.05;;;0.55;;
73938;SDS011;62291;47.554;8.504;2023-01-15T16:17:57;3.20;;;0.95;;
73938;SDS011;62291;47.554;8.504;2023-01-15T16:20:27;3.25;;;1.20;;
73938;SDS011;62291;47.554;8.504;2023-01-15T16:22:58;3.15;;;1.60;;
73938;SDS011;62291;47.554;8.504;2023-01-15T16:25:33;1.92;;;0.80;;
73938;SDS011;62291;47.554;8.504;2023-01-15T16:28:05;2.45;;;0.60;;
73938;SDS011;62291;47.554;8.504;2023-01-15T16:30:53;1.97;;;0.50;;
73938;SDS011;62291;47.554;8.504;2023-01-15T16:33:23;0.95;;;0.50;;
73938;SDS011;62291;47.554;8.504;2023-01-15T16:35:59;0.70;;;0.50;;
73938;SDS011;62291;47.554;8.504;2023-01-15T16:38:29;0.95;;;0.50;;
73938;SDS011;62291;47.554;8.504;2023-01-15T16:40:57;2.17;;;0.73;;
73938;SDS011;62291;47.554;8.504;2023-01-15T16:43:24;1.88;;;0.55;;
73938;SDS011;62291;47.554;8.504;2023-01-15T16:46:04;1.08;;;0.55;;
73938;SDS011;62291;47.554;8.504;2023-01-15T16:51:49;1.40;;;0.60;;
73938;SDS011;62291;47.554;8.504;2023-01-15T16:57:11;7.50;;;0.70;;
73938;SDS011;62291;47.554;8.504;2023-01-15T17:00:06;2.80;;;0.57;;
73938;SDS011;62291;47.554;8.504;2023-01-15T17:02:49;3.28;;;0.55;;
73938;SDS011;62291;47.554;8.504;2023-01-15T17:05:20;2.25;;;0.40;;
73938;SDS011;62291;47.554;8.504;2023-01-15T17:07:48;0.75;;;0.40;;
73938;SDS011;62291;47.554;8.504;2023-01-15T17:10:22;2.72;;;0.65;;
73938;SDS011;62291;47.554;8.504;2023-01-15T17:12:50;2.05;;;0.40;;
73938;SDS011;62291;47.554;8.504;2023-01-15T17:17:57;1.40;;;0.43;;
73938;SDS011;62291;47.554;8.504;2023-01-15T17:20:23;1.05;;;0.40;;
73938;SDS011;62291;47.554;8.504;2023-01-15T17:22:53;0.82;;;0.30;;
73938;SDS011;62291;47.554;8.504;2023-01-15T17:28:00;2.63;;;0.43;;
73938;SDS011;62291;47.554;8.504;2023-01-15T17:30:29;1.58;;;0.43;;
73938;SDS011;62291;47.554;8.504;2023-01-15T17:32:57;2.20;;;0.40;;
73938;SDS011;62291;47.554;8.504;2023-01-15T17:35:30;2.35;;;0.50;;